Time;durP1;ratioP1;P1;durP2;ratioP2;P2;SDS_P1;SDS_P2;PMS_P1;PMS_P2;Temp;Humidity;BMP_temperature;BMP_pressure;BME280_temperature;BME280_humidity;BME280_pressure;Samples;Min_cycle;Max_cycle;Signal;HPM_P1;HPM_P2
2023/09/08 00:00:09;;;;;;;9.40;8.50;;;19.50;99.90;;;;;;7367035;19;20021;-61
2023/09/08 00:02:55;;;;;;;8.52;7.63;;;19.40;99.90;;;;;;7367569;19;20026;-61
2023/09/08 00:05:22;;;;;;;9.82;7.95;;;19.30;99.90;;;;;;7370491;19;20453;-62
2023/09/08 00:07:48;;;;;;;9.57;8.45;;;19.20;99.90;;;;;;7371488;19;20037;-67
2023/09/08 00:10:14;;;;;;;10.93;8.30;;;19.20;99.90;;;;;;7376877;19;20464;-61
2023/09/08 00:12:41;;;;;;;9.13;8.23;;;19.10;99.90;;;;;;7377824;19;20078;-65
2023/09/08 00:15:08;;;;;;;11.02;8.00;;;19.10;99.90;;;;;;7371208;19;20493;-61
2023/09/08 00:17:36;;;;;;;10.98;8.40;;;19.10;99.90;;;;;;7370056;19;20026;-61
2023/09/08 00:20:08;;;;;;;10.60;8.52;;;19.00;99.90;;;;;;7369177;19;20034;-61
2023/09/08 00:22:34;;;;;;;;;;;19.00;99.90;;;;;;7371513;19;20019;-61
2023/09/08 00:25:00;;;;;;;11.18;7.88;;;18.90;99.90;;;;;;7369289;19;19926;-61
2023/09/08 00:27:26;;;;;;;9.68;7.93;;;18.70;99.90;;;;;;7372841;19;20051;-61
2023/09/08 00:29:53;;;;;;;7.97;7.28;;;18.70;99.90;;;;;;7368562;19;20384;-61
2023/09/08 00:32:19;;;;;;;9.20;8.30;;;18.60;99.90;;;;;;7371995;19;20627;-61
2023/09/08 00:34:45;;;;;;;12.52;9.40;;;18.60;99.90;;;;;;7368913;19;20448;-61
2023/09/08 00:37:11;;;;;;;10.05;8.48;;;18.60;99.90;;;;;;7371512;19;20018;-61
2023/09/08 00:39:39;;;;;;;11.48;8.85;;;18.60;99.90;;;;;;7365667;19;20022;-61
2023/09/08 00:42:08;;;;;;;9.25;8.45;;;18.50;99.90;;;;;;7374012;19;20018;-61
2023/09/08 00:44:34;;;;;;;11.10;9.07;;;18.50;99.90;;;;;;7378492;19;20049;-61
2023/09/08 00:47:01;;;;;;;10.13;9.07;;;18.50;99.90;;;;;;7376815;19;20267;-66
2023/09/08 00:49:49;;;;;;;9.00;8.10;;;18.50;99.90;;;;;;7387460;19;20027;-67
2023/09/08 00:52:16;;;;;;;9.35;8.35;;;18.40;99.90;;;;;;7387822;19;20020;-67
2023/09/08 00:55:05;;;;;;;11.88;9.15;;;18.40;99.90;;;;;;7386230;19;20030;-67
2023/09/08 00:57:32;;;;;;;9.90;8.90;;;18.30;99.90;;;;;;7389070;19;20010;-67
2023/09/08 00:59:59;;;;;;;10.15;8.07;;;18.30;99.90;;;;;;7387500;19;20310;-67
2023/09/08 01:02:25;;;;;;;9.88;8.85;;;18.20;99.90;;;;;;7392469;19;20489;-67
2023/09/08 01:04:52;;;;;;;10.30;8.50;;;18.10;99.90;;;;;;7390166;19;21001;-67
2023/09/08 01:07:21;;;;;;;10.07;9.13;;;18.10;99.90;;;;;;7389516;19;20106;-67
2023/09/08 01:10:08;;;;;;;14.07;8.98;;;18.00;99.90;;;;;;7389770;19;20106;-66
2023/09/08 01:12:34;;;;;;;9.55;8.55;;;17.90;99.90;;;;;;7389606;19;20078;-67
2023/09/08 01:15:02;;;;;;;10.07;8.52;;;17.90;99.90;;;;;;7389023;19;20023;-67
2023/09/08 01:17:49;;;;;;;9.90;9.00;;;17.90;99.90;;;;;;7389397;19;20023;-68
2023/09/08 01:20:31;;;;;;;10.90;8.98;;;17.90;99.90;;;;;;7390586;19;20057;-67
2023/09/08 01:23:18;;;;;;;10.52;9.25;;;17.90;99.90;;;;;;7390514;19;20019;-67
2023/09/08 01:25:59;;;;;;;10.75;9.65;;;17.90;99.90;;;;;;7389100;19;20439;-68
2023/09/08 01:28:27;;;;;;;9.40;8.48;;;17.90;99.90;;;;;;7388370;19;20023;-68
2023/09/08 01:30:55;;;;;;;11.77;9.40;;;17.80;99.90;;;;;;7384335;19;20400;-68
2023/09/08 01:33:22;;;;;;;11.35;10.13;;;17.80;99.90;;;;;;7389083;19;20085;-68
2023/09/08 01:35:49;;;;;;;12.13;10.73;;;17.90;99.90;;;;;;7387579;19;20030;-67
2023/09/08 01:38:16;;;;;;;10.73;9.60;;;17.90;99.90;;;;;;7388688;19;20037;-67
2023/09/08 01:40:42;;;;;;;11.85;9.25;;;17.90;99.90;;;;;;7390079;19;20015;-70
2023/09/08 01:43:08;;;;;;;10.40;9.40;;;17.90;99.90;;;;;;7390729;19;20089;-67
2023/09/08 01:45:54;;;;;;;12.30;10.07;;;17.90;99.90;;;;;;7391204;19;20022;-66
2023/09/08 01:48:21;;;;;;;11.05;9.93;;;17.90;99.90;;;;;;7391298;19;20014;-68
2023/09/08 01:51:07;;;;;;;12.02;10.63;;;17.90;99.90;;;;;;7390323;19;20478;-67
2023/09/08 01:53:34;;;;;;;10.75;9.73;;;17.90;99.90;;;;;;7388336;19;20018;-68
2023/09/08 01:56:01;;;;;;;11.10;10.00;;;18.00;99.90;;;;;;7387488;19;20833;-68
2023/09/08 01:58:27;;;;;;;11.57;10.43;;;18.00;99.90;;;;;;7389118;19;20019;-67
2023/09/08 02:00:54;;;;;;;13.63;10.02;;;18.00;99.90;;;;;;7388804;19;20513;-68
2023/09/08 02:03:40;;;;;;;12.98;9.63;;;17.90;99.90;;;;;;7387685;19;20019;-68
2023/09/08 02:06:07;;;;;;;12.82;9.90;;;17.90;99.90;;;;;;7391161;19;20086;-65
2023/09/08 02:08:53;;;;;;;11.45;9.90;;;17.90;99.90;;;;;;7388958;19;20029;-67
2023/09/08 02:11:20;;;;;;;11.40;10.27;;;17.80;99.90;;;;;;7388981;19;20599;-67
2023/09/08 02:13:49;;;;;;;12.38;10.00;;;17.80;99.90;;;;;;7386772;19;20371;-67
2023/09/08 02:16:15;;;;;;;12.00;9.30;;;17.70;99.90;;;;;;7388076;19;20089;-67
2023/09/08 02:19:01;;;;;;;11.50;10.30;;;17.70;99.90;;;;;;7389945;19;20022;-67
2023/09/08 02:21:27;;;;;;;11.25;10.10;;;17.70;99.90;;;;;;7392330;19;20389;-67
2023/09/08 02:23:54;;;;;;;11.20;10.00;;;17.60;99.90;;;;;;7390740;19;20028;-67
2023/09/08 02:26:41;;;;;;;10.88;9.75;;;17.60;99.90;;;;;;7391870;19;20022;-68
2023/09/08 02:29:07;;;;;;;12.30;10.93;;;17.60;99.90;;;;;;7388305;19;20023;-67
2023/09/08 02:31:34;;;;;;;11.73;10.48;;;17.50;99.90;;;;;;7389342;19;20038;-67
2023/09/08 02:34:23;;;;;;;11.02;9.90;;;17.50;99.90;;;;;;7390223;19;20018;-67
2023/09/08 02:37:09;;;;;;;10.70;9.63;;;17.40;99.90;;;;;;7390414;19;20014;-68
2023/09/08 02:39:36;;;;;;;11.85;10.55;;;17.40;99.90;;;;;;7381482;19;20041;-61
2023/09/08 02:42:02;;;;;;;10.77;9.68;;;17.30;99.90;;;;;;7374784;19;20032;-61
2023/09/08 02:44:48;;;;;;;11.85;10.63;;;17.30;99.90;;;;;;7371383;19;20041;-61
2023/09/08 02:47:15;;;;;;;12.25;11.00;;;17.20;99.90;;;;;;7372601;19;20022;-61
2023/09/08 02:49:43;;;;;;;11.77;10.57;;;17.20;99.90;;;;;;7371113;19;20365;-62
2023/09/08 02:52:09;;;;;;;12.18;10.98;;;17.20;99.90;;;;;;7372996;19;20501;-62
2023/09/08 02:54:37;;;;;;;11.77;10.68;;;17.20;99.90;;;;;;7367625;19;20098;-62
2023/09/08 02:57:03;;;;;;;12.48;11.18;;;17.20;99.90;;;;;;7368928;19;20026;-62
2023/09/08 02:59:30;;;;;;;11.85;10.80;;;17.10;99.90;;;;;;7365244;19;20018;-62
2023/09/08 03:01:56;;;;;;;11.50;10.35;;;17.10;99.90;;;;;;7372783;19;20015;-62
2023/09/08 03:04:23;;;;;;;13.48;11.55;;;17.00;99.90;;;;;;7363732;19;20015;-62
2023/09/08 03:06:50;;;;;;;12.73;11.07;;;17.00;99.90;;;;;;7378148;19;20537;-68
2023/09/08 03:09:16;;;;;;;11.52;10.52;;;16.90;99.90;;;;;;7383714;19;20014;-63
2023/09/08 03:11:42;;;;;;;12.95;11.63;;;17.00;99.90;;;;;;7371410;19;20014;-61
2023/09/08 03:14:28;;;;;;;15.35;11.30;;;16.90;99.90;;;;;;7373359;19;20417;-67
2023/09/08 03:16:55;;;;;;;12.85;11.50;;;16.90;99.90;;;;;;7383184;19;20427;-67
2023/09/08 03:19:21;;;;;;;12.82;11.52;;;16.90;99.90;;;;;;7374987;19;20025;-67
2023/09/08 03:21:48;;;;;;;13.65;10.82;;;16.90;99.90;;;;;;7381103;19;20648;-67
2023/09/08 03:24:14;;;;;;;13.20;12.00;;;16.90;99.90;;;;;;7386104;19;20482;-68
2023/09/08 03:26:40;;;;;;;13.68;12.27;;;16.80;99.90;;;;;;7385408;19;20022;-68
2023/09/08 03:29:07;;;;;;;13.38;12.02;;;16.80;99.90;;;;;;7386009;19;20478;-67
2023/09/08 03:31:33;;;;;;;13.15;11.88;;;16.80;99.90;;;;;;7384675;19;20524;-68
2023/09/08 03:34:20;;;;;;;13.10;11.90;;;16.80;99.90;;;;;;7383625;19;20026;-68
2023/09/08 03:36:50;;;;;;;14.50;12.05;;;16.80;99.90;;;;;;7386581;19;20070;-68
2023/09/08 03:39:16;;;;;;;12.95;11.43;;;16.80;99.90;;;;;;7386178;19;20031;-68
2023/09/08 03:41:43;;;;;;;13.82;12.57;;;16.80;99.90;;;;;;7388468;19;20010;-68
2023/09/08 03:44:30;;;;;;;13.35;12.05;;;16.80;99.90;;;;;;7388729;19;20074;-68
2023/09/08 03:46:56;;;;;;;12.52;11.32;;;16.70;99.90;;;;;;7389117;19;20474;-68
2023/09/08 03:49:22;;;;;;;12.82;11.48;;;16.70;99.90;;;;;;7389106;19;20025;-68
2023/09/08 03:51:49;;;;;;;13.10;11.70;;;16.70;99.90;;;;;;7388374;19;20359;-68
2023/09/08 03:54:15;;;;;;;14.60;12.00;;;16.70;99.90;;;;;;7388127;19;20409;-68
2023/09/08 03:56:42;;;;;;;14.25;12.90;;;16.70;99.90;;;;;;7389880;19;20125;-68
2023/09/08 03:59:08;;;;;;;14.90;13.45;;;16.70;99.90;;;;;;7389768;19;20015;-68
2023/09/08 04:01:34;;;;;;;12.27;11.07;;;16.70;99.90;;;;;;7391173;19;20016;-68
2023/09/08 04:04:01;;;;;;;12.55;11.40;;;16.60;99.90;;;;;;7388886;19;20081;-69
2023/09/08 04:06:28;;;;;;;13.18;11.90;;;16.60;99.90;;;;;;7388774;19;20038;-68
2023/09/08 04:08:54;;;;;;;13.98;12.48;;;16.60;99.90;;;;;;7390207;19;20033;-68
2023/09/08 04:11:20;;;;;;;14.50;13.00;;;16.60;99.90;;;;;;7387453;19;20025;-68
2023/09/08 04:13:46;;;;;;;13.57;12.38;;;16.50;99.90;;;;;;7387368;19;20015;-68
2023/09/08 04:16:13;;;;;;;14.13;12.82;;;16.50;99.90;;;;;;7387121;19;20374;-68
2023/09/08 04:18:39;;;;;;;14.75;13.35;;;16.50;99.90;;;;;;7395952;19;20546;-68
2023/09/08 04:21:07;;;;;;;13.48;12.27;;;16.50;99.90;;;;;;7398733;19;20022;-68
2023/09/08 04:23:33;;;;;;;13.65;12.32;;;16.40;99.90;;;;;;7395647;19;20023;-68
2023/09/08 04:26:00;;;;;;;13.68;12.30;;;16.40;99.90;;;;;;7395847;19;20011;-68
2023/09/08 04:28:26;;;;;;;14.45;13.15;;;16.30;99.90;;;;;;7394977;19;20074;-68
2023/09/08 04:30:52;;;;;;;14.63;13.25;;;16.30;99.90;;;;;;7395445;19;20398;-68
2023/09/08 04:33:19;;;;;;;15.45;14.00;;;16.30;99.90;;;;;;7393555;19;20022;-68
2023/09/08 04:35:45;;;;;;;15.18;13.65;;;16.20;99.90;;;;;;7393537;19;20482;-68
2023/09/08 04:38:11;;;;;;;15.27;13.88;;;16.30;99.90;;;;;;7392870;19;20414;-69
2023/09/08 04:40:41;;;;;;;15.82;14.23;;;16.30;99.90;;;;;;7394991;19;20376;-68
2023/09/08 04:43:08;;;;;;;16.60;15.05;;;16.30;99.90;;;;;;7394875;19;20030;-68
2023/09/08 04:45:34;;;;;;;15.25;13.65;;;16.30;99.90;;;;;;7395117;19;20018;-68
2023/09/08 04:48:01;;;;;;;16.27;14.65;;;16.40;99.90;;;;;;7396280;19;20015;-69
2023/09/08 04:50:27;;;;;;;16.02;14.43;;;16.30;99.90;;;;;;7393330;19;20103;-68
2023/09/08 04:52:53;;;;;;;17.33;15.63;;;16.30;99.90;;;;;;7396922;19;20018;-68
2023/09/08 04:55:20;;;;;;;17.50;14.85;;;16.40;99.90;;;;;;7392391;19;20107;-68
2023/09/08 04:57:47;;;;;;;16.08;14.48;;;16.40;99.90;;;;;;7393105;19;20006;-68
2023/09/08 05:00:14;;;;;;;18.60;14.98;;;16.40;99.90;;;;;;7393629;19;20046;-68
2023/09/08 05:02:44;;;;;;;16.88;15.20;;;16.40;99.90;;;;;;7392614;19;20014;-69
2023/09/08 05:05:31;;;;;;;17.63;15.27;;;16.50;99.90;;;;;;7392727;19;20357;-68
2023/09/08 05:07:57;;;;;;;15.95;14.40;;;16.50;99.90;;;;;;7392242;19;20014;-68
2023/09/08 05:10:24;;;;;;;16.55;14.77;;;16.50;99.90;;;;;;7391733;19;20021;-69
2023/09/08 05:12:51;;;;;;;16.17;14.45;;;16.40;99.90;;;;;;7392829;19;20029;-68
2023/09/08 05:15:21;;;;;;;16.15;14.60;;;16.50;99.90;;;;;;7390784;19;20552;-68
2023/09/08 05:17:50;;;;;;;17.23;15.20;;;16.50;99.90;;;;;;7391842;19;20019;-68
2023/09/08 05:20:18;;;;;;;16.90;15.18;;;16.60;99.90;;;;;;7390796;19;20070;-69
2023/09/08 05:22:45;;;;;;;17.23;15.25;;;16.50;99.90;;;;;;7393109;19;20085;-68
2023/09/08 05:25:12;;;;;;;15.98;14.38;;;16.50;99.90;;;;;;7391161;19;20379;-68
2023/09/08 05:28:00;;;;;;;16.35;14.60;;;16.60;99.90;;;;;;7390715;19;20037;-69
2023/09/08 05:30:46;;;;;;;15.88;14.27;;;16.60;99.90;;;;;;7393298;19;20037;-68
2023/09/08 05:33:13;;;;;;;16.67;14.98;;;16.60;99.90;;;;;;7392375;19;20541;-68
2023/09/08 05:36:02;;;;;;;16.67;15.02;;;16.60;99.90;;;;;;7390960;19;20037;-67
2023/09/08 05:38:28;;;;;;;15.95;14.45;;;16.70;99.90;;;;;;7390653;19;20022;-67
2023/09/08 05:40:55;;;;;;;15.88;14.43;;;16.70;99.90;;;;;;7392199;19;20029;-67
2023/09/08 05:43:26;;;;;;;16.35;14.55;;;16.80;99.90;;;;;;7390102;19;20488;-67
2023/09/08 05:45:53;;;;;;;14.82;13.43;;;16.90;99.90;;;;;;7391536;19;20026;-67
2023/09/08 05:48:20;;;;;;;15.45;13.95;;;17.00;99.90;;;;;;7388495;19;20021;-68
2023/09/08 05:51:07;;;;;;;15.65;13.35;;;17.10;99.90;;;;;;7390158;19;20014;-68
2023/09/08 05:53:35;;;;;;;14.27;12.77;;;17.20;99.90;;;;;;7389011;19;20266;-68
2023/09/08 05:56:02;;;;;;;13.55;12.25;;;17.30;99.90;;;;;;7386802;19;20018;-68
2023/09/08 05:58:30;;;;;;;14.13;12.73;;;17.40;99.90;;;;;;7384232;19;20019;-68
2023/09/08 06:00:57;;;;;;;13.57;12.07;;;17.60;99.90;;;;;;7388060;19;20368;-68
2023/09/08 06:03:44;;;;;;;13.23;11.93;;;17.70;99.90;;;;;;7383749;19;20018;-71
2023/09/08 06:06:11;;;;;;;13.55;11.23;;;17.80;99.90;;;;;;7368977;19;20018;-69
2023/09/08 06:08:37;;;;;;;12.73;11.30;;;17.90;99.90;;;;;;7387240;19;20022;-67
2023/09/08 06:11:24;;;;;;;13.95;10.98;;;18.10;99.90;;;;;;7386673;19;20456;-68
2023/09/08 06:13:50;;;;;;;12.88;11.68;;;18.20;99.90;;;;;;7388261;19;20481;-68
2023/09/08 06:16:16;;;;;;;51.05;45.63;;;18.40;99.90;;;;;;7376793;19;20434;-64
2023/09/08 06:18:44;;;;;;;17.52;15.80;;;18.60;99.90;;;;;;7365930;19;20033;-65
2023/09/08 06:21:13;;;;;;;13.73;11.35;;;18.80;99.90;;;;;;7369619;19;20035;-65
2023/09/08 06:23:40;;;;;;;15.05;12.85;;;19.00;99.90;;;;;;7366012;19;20018;-64
2023/09/08 06:26:06;;;;;;;22.33;20.20;;;19.20;99.90;;;;;;7369998;19;20624;-65
2023/09/08 06:28:34;;;;;;;12.00;10.27;;;19.30;99.90;;;;;;7364523;19;20042;-65
2023/09/08 06:31:00;;;;;;;120.25;108.03;;;19.50;99.90;;;;;;7372837;19;20015;-69
2023/09/08 06:33:26;;;;;;;61.75;55.58;;;19.70;99.90;;;;;;7367196;19;20121;-68
2023/09/08 06:35:54;;;;;;;40.58;36.78;;;19.90;99.90;;;;;;7367597;19;20356;-65
2023/09/08 06:38:20;;;;;;;47.63;43.08;;;20.20;99.90;;;;;;7364904;19;20019;-66
2023/09/08 06:40:47;;;;;;;13.98;10.98;;;20.50;99.90;;;;;;7369201;19;20133;-69
2023/09/08 06:43:14;;;;;;;18.27;16.05;;;20.70;99.90;;;;;;7365020;19;20018;-64
2023/09/08 06:45:50;;;;;;;12.25;10.00;;;21.00;99.90;;;;;;7372752;19;20014;-65
2023/09/08 06:48:17;;;;;;;18.17;14.63;;;21.20;99.90;;;;;;7366973;19;20078;-64
2023/09/08 06:50:43;;;;;;;11.02;9.68;;;21.40;99.90;;;;;;7369957;19;20109;-66
2023/09/08 06:53:10;;;;;;;12.15;10.85;;;21.60;99.90;;;;;;7364413;19;20021;-65
2023/09/08 06:55:37;;;;;;;10.30;9.27;;;21.90;99.90;;;;;;7368158;19;20036;-65
2023/09/08 06:58:03;;;;;;;26.20;23.70;;;22.10;99.90;;;;;;7368454;19;20429;-61
2023/09/08 07:00:30;;;;;;;20.77;15.88;;;22.40;99.90;;;;;;7367007;19;20441;-65
2023/09/08 07:03:02;;;;;;;83.60;75.63;;;22.60;99.90;;;;;;7366712;19;20476;-65
2023/09/08 07:05:28;;;;;;;18.10;15.63;;;22.90;99.90;;;;;;7365423;19;20086;-65
2023/09/08 07:08:15;;;;;;;16.88;15.20;;;23.30;99.90;;;;;;7363596;19;20578;-66
2023/09/08 07:10:42;;;;;;;13.68;9.82;;;23.40;99.90;;;;;;7366974;19;20014;-65
2023/09/08 07:13:08;;;;;;;34.47;31.17;;;23.70;99.90;;;;;;7365715;19;20517;-66
2023/09/08 07:15:35;;;;;;;10.63;9.50;;;24.00;99.90;;;;;;7368331;19;20576;-70
2023/09/08 07:18:05;;;;;;;14.10;11.13;;;24.40;99.90;;;;;;7365575;19;20374;-70
2023/09/08 07:20:51;;;;;;;12.48;9.80;;;24.60;99.90;;;;;;7366659;19;20360;-70
2023/09/08 07:23:20;;;;;;;11.43;9.68;;;24.90;99.90;;;;;;7365483;19;20306;-66
2023/09/08 07:25:47;;;;;;;21.80;19.73;;;25.10;99.90;;;;;;7367633;19;20026;-66
2023/09/08 07:28:20;;;;;;;14.52;10.98;;;25.60;99.90;;;;;;7363466;19;20717;-70
2023/09/08 07:30:46;;;;;;;9.85;8.60;;;25.90;99.90;;;;;;7364767;19;20086;-70
2023/09/08 07:33:13;;;;;;;10.63;8.18;;;26.20;99.90;;;;;;7366154;19;20022;-69
2023/09/08 07:35:40;;;;;;;36.35;33.10;;;26.50;99.90;;;;;;7359154;19;20030;-68
2023/09/08 07:38:07;;;;;;;13.50;11.98;;;27.00;99.90;;;;;;7362694;19;20029;-70
2023/09/08 07:40:36;;;;;;;13.05;9.88;;;27.20;99.90;;;;;;7360055;19;20018;-67
2023/09/08 07:43:02;;;;;;;10.95;9.85;;;27.30;99.90;;;;;;7363312;19;20470;-70
2023/09/08 07:45:28;;;;;;;10.80;8.30;;;27.60;99.90;;;;;;7366055;19;20023;-69
2023/09/08 07:47:55;;;;;;;9.80;7.93;;;27.80;99.90;;;;;;7361951;19;20018;-65
2023/09/08 07:50:24;;;;;;;10.20;7.25;;;28.10;99.90;;;;;;7364101;19;20331;-70
2023/09/08 07:52:53;;;;;;;10.35;8.50;;;28.40;99.90;;;;;;7364240;19;20642;-68
2023/09/08 07:55:39;;;;;;;12.77;11.68;;;28.50;99.90;;;;;;7361923;19;20496;-69
2023/09/08 07:58:08;;;;;;;9.18;6.50;;;28.90;99.60;;;;;;7366535;19;20019;-72
2023/09/08 08:00:55;;;;;;;20.08;18.17;;;28.80;98.60;;;;;;7368270;19;20477;-64
2023/09/08 08:03:42;;;;;;;9.85;8.60;;;29.10;97.40;;;;;;7365284;19;20058;-72
2023/09/08 08:06:08;;;;;;;8.73;6.50;;;29.30;95.90;;;;;;7368895;19;20449;-67
2023/09/08 08:08:38;;;;;;;7.82;6.18;;;29.70;96.00;;;;;;7365392;19;20645;-71
2023/09/08 08:11:15;;;;;;;6.28;5.68;;;29.70;95.40;;;;;;7367055;19;20510;-72
2023/09/08 08:13:41;;;;;;;7.80;6.30;;;29.90;93.50;;;;;;7366525;19;20010;-68
2023/09/08 08:16:08;;;;;;;7.22;5.60;;;30.20;93.00;;;;;;7367823;19;20463;-72
2023/09/08 08:18:34;;;;;;;9.10;6.63;;;30.40;91.80;;;;;;7363928;19;20014;-62
2023/09/08 08:21:22;;;;;;;15.93;14.38;;;30.70;91.00;;;;;;7362350;19;20504;-63
2023/09/08 08:23:49;;;;;;;8.07;7.25;;;31.00;89.50;;;;;;7371699;19;20022;-63
2023/09/08 08:26:16;;;;;;;9.20;8.15;;;31.10;87.70;;;;;;7365888;19;20037;-63
2023/09/08 08:28:42;;;;;;;13.60;12.32;;;31.10;87.10;;;;;;7369141;19;20335;-63
2023/09/08 08:31:08;;;;;;;9.73;8.57;;;31.30;85.70;;;;;;7364978;19;20919;-62
2023/09/08 08:33:35;;;;;;;8.05;7.25;;;31.20;83.60;;;;;;7366412;19;20019;-62
2023/09/08 08:36:01;;;;;;;11.55;8.77;;;31.50;80.80;;;;;;7360593;19;20467;-61
2023/09/08 08:38:28;;;;;;;9.10;5.55;;;31.40;82.20;;;;;;7365673;19;20033;-68
2023/09/08 08:40:54;;;;;;;7.93;6.50;;;31.80;82.10;;;;;;7366260;19;20015;-72
2023/09/08 08:43:23;;;;;;;6.13;5.53;;;31.70;80.30;;;;;;7359243;19;20022;-71
2023/09/08 08:45:50;;;;;;;6.65;5.30;;;31.90;77.70;;;;;;7366218;19;20025;-71
2023/09/08 08:48:20;;;;;;;13.60;12.23;;;32.00;77.80;;;;;;7368599;19;20470;-71
2023/09/08 08:50:47;;;;;;;7.65;6.60;;;31.90;76.20;;;;;;7369880;19;20086;-71
2023/09/08 08:53:15;;;;;;;9.63;6.90;;;32.00;75.20;;;;;;7367612;19;20018;-70
2023/09/08 08:55:42;;;;;;;9.10;6.97;;;32.40;74.90;;;;;;7357259;19;20017;-71
2023/09/08 08:58:08;;;;;;;12.25;11.05;;;32.60;73.90;;;;;;7359725;19;20018;-71
2023/09/08 09:00:38;;;;;;;7.95;5.72;;;32.70;72.50;;;;;;7363395;19;20015;-70
2023/09/08 09:03:27;;;;;;;8.63;7.68;;;32.90;72.10;;;;;;7363323;19;20018;-71
2023/09/08 09:05:53;;;;;;;15.70;14.05;;;32.80;72.30;;;;;;7370884;19;20037;-70
2023/09/08 09:08:21;;;;;;;14.30;12.95;;;33.30;72.20;;;;;;7369366;19;20837;-71
2023/09/08 09:11:08;;;;;;;8.52;7.18;;;33.50;72.30;;;;;;7372071;19;20007;-62
2023/09/08 09:13:34;;;;;;;8.95;6.20;;;33.90;71.70;;;;;;7368167;19;20011;-62
2023/09/08 09:16:03;;;;;;;9.70;7.72;;;33.90;69.10;;;;;;7371148;19;20015;-62
2023/09/08 09:18:30;;;;;;;13.60;12.35;;;34.20;69.40;;;;;;7365504;19;20014;-62
2023/09/08 09:21:00;;;;;;;11.75;10.52;;;34.20;66.30;;;;;;7372046;19;20466;-62
2023/09/08 09:23:31;;;;;;;7.53;6.10;;;34.60;65.70;;;;;;7369916;19;20035;-62
2023/09/08 09:25:58;;;;;;;6.07;4.45;;;34.70;63.10;;;;;;7380114;19;20018;-62
2023/09/08 09:28:31;;;;;;;7.03;6.18;;;35.00;61.10;;;;;;7372330;19;20342;-62
2023/09/08 09:31:17;;;;;;;9.07;8.20;;;35.10;62.60;;;;;;7365275;19;20018;-70
2023/09/08 09:33:45;;;;;;;9.93;5.20;;;34.80;61.00;;;;;;7368742;19;20490;-74
2023/09/08 09:36:20;;;;;;;9.07;7.25;;;34.90;61.20;;;;;;7367080;19;20624;-70
2023/09/08 09:38:49;;;;;;;10.93;8.57;;;35.00;61.30;;;;;;7366893;19;20782;-70
2023/09/08 09:41:16;;;;;;;9.02;7.10;;;35.30;61.50;;;;;;7369652;19;20355;-71
2023/09/08 09:44:03;;;;;;;12.93;10.93;;;35.70;61.80;;;;;;7367797;19;20018;-70
2023/09/08 09:46:30;;;;;;;16.52;14.85;;;35.90;59.90;;;;;;7365562;19;20644;-70
2023/09/08 09:48:56;;;;;;;6.80;6.10;;;35.80;60.30;;;;;;7370711;19;20014;-70
2023/09/08 09:51:23;;;;;;;25.80;23.63;;;35.90;59.80;;;;;;7362552;19;20584;-70
2023/09/08 09:53:54;;;;;;;8.93;5.15;;;36.00;58.90;;;;;;7369325;19;20086;-63
2023/09/08 09:56:23;;;;;;;10.02;7.55;;;36.30;58.50;;;;;;7364276;19;20402;-70
2023/09/08 09:58:52;;;;;;;10.10;6.47;;;36.30;56.00;;;;;;7372738;19;20015;-64
2023/09/08 10:01:20;;;;;;;8.13;6.05;;;36.40;55.70;;;;;;7368131;19;20010;-64
2023/09/08 10:03:48;;;;;;;6.80;5.88;;;36.40;55.00;;;;;;7370163;19;20362;-64
2023/09/08 10:06:15;;;;;;;8.77;7.97;;;36.40;54.60;;;;;;7366846;19;20097;-70
2023/09/08 10:08:43;;;;;;;6.80;4.90;;;36.50;54.70;;;;;;7371248;19;20595;-71
2023/09/08 10:11:10;;;;;;;8.52;5.80;;;36.50;54.40;;;;;;7367076;19;20026;-71
2023/09/08 10:13:46;;;;;;;7.63;5.03;;;36.40;53.90;;;;;;7368779;19;20022;-69
2023/09/08 10:16:19;;;;;;;8.25;7.38;;;36.40;54.20;;;;;;7362411;19;20457;-70
2023/09/08 10:18:47;;;;;;;9.18;4.35;;;36.70;53.80;;;;;;7372880;19;20018;-70
2023/09/08 10:21:16;;;;;;;7.03;4.20;;;36.90;54.10;;;;;;7368892;19;20061;-70
2023/09/08 10:23:50;;;;;;;6.18;5.32;;;36.70;53.60;;;;;;7366527;19;20015;-70
2023/09/08 10:26:25;;;;;;;7.68;4.68;;;36.60;54.10;;;;;;7367610;19;20011;-70
2023/09/08 10:29:12;;;;;;;6.75;5.30;;;36.60;54.20;;;;;;7368846;19;20014;-69
2023/09/08 10:31:39;;;;;;;22.98;20.63;;;36.90;54.40;;;;;;7368539;19;20366;-70
2023/09/08 10:34:07;;;;;;;10.55;5.82;;;37.20;54.30;;;;;;7366578;19;20018;-70
2023/09/08 10:36:35;;;;;;;11.82;8.02;;;36.80;52.80;;;;;;7363590;19;20026;-70
2023/09/08 10:39:41;;;;;;;20.13;18.38;;;37.30;52.50;;;;;;7368163;19;20798;-69
2023/09/08 10:42:17;;;;;;;35.90;32.80;;;37.40;52.40;;;;;;7367011;19;20015;-68
2023/09/08 10:44:44;;;;;;;6.07;5.47;;;37.50;50.80;;;;;;7369212;19;20498;-69
2023/09/08 10:47:11;;;;;;;8.57;5.13;;;37.50;49.80;;;;;;7368039;19;20077;-69
2023/09/08 10:49:38;;;;;;;10.68;9.20;;;37.50;50.00;;;;;;7369535;19;20045;-69
2023/09/08 10:52:09;;;;;;;10.80;9.75;;;37.40;50.10;;;;;;7367907;19;20021;-69
2023/09/08 10:55:06;;;;;;;6.90;5.80;;;37.30;50.30;;;;;;7369700;19;20422;-66
2023/09/08 10:57:54;;;;;;;15.57;14.00;;;37.50;49.30;;;;;;7370798;19;20360;-61
2023/09/08 11:00:20;;;;;;;17.73;16.08;;;37.40;49.50;;;;;;7366066;19;20029;-61
2023/09/08 11:02:56;;;;;;;15.45;7.00;;;37.80;50.20;;;;;;7370801;19;20074;-61
2023/09/08 11:05:23;;;;;;;6.88;4.47;;;38.20;49.30;;;;;;7366595;19;20163;-61
2023/09/08 11:07:52;;;;;;;7.10;3.92;;;37.90;49.50;;;;;;7367781;19;20603;-61
2023/09/08 11:10:21;;;;;;;7.63;4.22;;;38.00;48.60;;;;;;7364904;19;20018;-62
2023/09/08 11:13:10;;;;;;;4.47;3.35;;;38.20;46.10;;;;;;7365567;19;20038;-62
2023/09/08 11:15:57;;;;;;;4.70;3.97;;;38.00;44.80;;;;;;7367403;19;20378;-61
2023/09/08 11:18:27;;;;;;;5.38;4.13;;;38.20;45.80;;;;;;7363917;19;20345;-64
2023/09/08 11:20:53;;;;;;;;;;;38.00;44.80;;;;;;7366500;19;20014;-70
2023/09/08 11:23:21;;;;;;;9.55;8.68;;;37.80;43.60;;;;;;7369629;19;19961;-71
2023/09/08 11:25:48;;;;;;;15.25;13.77;;;37.90;46.10;;;;;;7368237;19;20087;-70
2023/09/08 11:28:35;;;;;;;7.57;6.85;;;38.10;45.70;;;;;;7362751;19;20014;-71
2023/09/08 11:31:03;;;;;;;9.45;7.18;;;38.00;44.50;;;;;;7369092;19;20026;-71
2023/09/08 11:33:34;;;;;;;7.07;3.60;;;37.90;45.50;;;;;;7363713;19;20448;-70
2023/09/08 11:36:01;;;;;;;11.40;10.38;;;37.90;43.80;;;;;;7369495;19;20120;-71
2023/09/08 11:38:28;;;;;;;10.52;9.50;;;37.80;45.20;;;;;;7364224;19;20023;-70
2023/09/08 11:40:58;;;;;;;7.55;5.40;;;38.20;44.60;;;;;;7366750;19;20035;-63
2023/09/08 11:43:26;;;;;;;4.65;3.47;;;38.20;45.70;;;;;;7363595;19;20022;-63
2023/09/08 11:45:53;;;;;;;5.45;4.40;;;38.30;45.50;;;;;;7369947;19;20616;-62
2023/09/08 11:48:19;;;;;;;5.65;4.45;;;38.70;44.60;;;;;;7368492;19;20062;-62
2023/09/08 11:50:46;;;;;;;5.32;3.67;;;38.80;44.60;;;;;;7364264;19;20046;-62
2023/09/08 11:53:12;;;;;;;7.10;4.38;;;39.00;43.50;;;;;;7363721;19;20469;-63
2023/09/08 11:55:39;;;;;;;7.40;6.60;;;38.20;43.00;;;;;;7362219;19;20014;-60
2023/09/08 11:58:06;;;;;;;5.78;3.97;;;38.50;44.00;;;;;;7364398;19;20025;-61
2023/09/08 12:00:32;;;;;;;7.75;4.53;;;38.60;43.50;;;;;;7366800;19;20010;-61
2023/09/08 12:03:15;;;;;;;5.15;4.18;;;38.70;43.40;;;;;;7363983;19;20082;-61
2023/09/08 12:05:43;;;;;;;5.57;4.97;;;39.00;44.60;;;;;;7367463;19;20024;-62
2023/09/08 12:08:10;;;;;;;5.97;4.00;;;38.90;43.50;;;;;;7366130;19;20052;-61
2023/09/08 12:10:41;;;;;;;9.05;5.95;;;39.10;42.60;;;;;;7366594;19;20038;-60
2023/09/08 12:13:27;;;;;;;7.55;6.65;;;38.80;43.20;;;;;;7364617;19;20477;-61
2023/09/08 12:16:22;;;;;;;5.78;5.03;;;38.90;44.10;;;;;;7365078;19;20374;-60
2023/09/08 12:18:50;;;;;;;10.27;6.93;;;38.90;43.20;;;;;;7360745;19;20014;-60
2023/09/08 12:21:16;;;;;;;5.47;3.95;;;39.00;43.60;;;;;;7365181;19;20046;-60
2023/09/08 12:23:50;;;;;;;5.47;3.88;;;39.20;42.70;;;;;;7365272;19;20093;-61
2023/09/08 12:26:17;;;;;;;7.75;5.90;;;39.30;43.10;;;;;;7366296;19;20019;-69
2023/09/08 12:28:45;;;;;;;6.05;5.40;;;39.00;42.90;;;;;;7364353;19;21208;-69
2023/09/08 12:31:13;;;;;;;5.90;4.70;;;39.40;42.60;;;;;;7365444;19;20371;-67
2023/09/08 12:34:01;;;;;;;7.75;4.45;;;39.30;41.20;;;;;;7364642;19;20470;-67
2023/09/08 12:36:27;;;;;;;6.38;5.72;;;39.00;42.00;;;;;;7362473;19;20026;-66
2023/09/08 12:38:53;;;;;;;5.88;3.80;;;38.90;42.00;;;;;;7371818;19;20044;-67
2023/09/08 12:41:20;;;;;;;5.57;4.53;;;38.90;41.70;;;;;;7367073;19;20458;-68
2023/09/08 12:43:46;;;;;;;6.28;4.47;;;38.90;41.60;;;;;;7374505;19;20056;-66
2023/09/08 12:46:12;;;;;;;7.18;4.75;;;39.10;40.80;;;;;;7371164;19;20486;-67
2023/09/08 12:48:39;;;;;;;4.70;3.78;;;39.10;41.20;;;;;;7371905;19;20022;-67
2023/09/08 12:51:05;;;;;;;5.50;3.65;;;39.30;40.30;;;;;;7372149;19;20018;-66